createdAt,value
2023-02-06T00:00:25.422Z,3.06
2023-02-06T00:01:25.463Z,3.03
2023-02-06T00:02:25.608Z,3.02
2023-02-06T00:03:26.336Z,2.98
2023-02-06T00:04:25.608Z,3.05
2023-02-06T00:05:25.663Z,3.03
2023-02-06T00:06:25.669Z,2.97
2023-02-06T00:07:25.719Z,3.00
2023-02-06T00:08:25.754Z,3.03
2023-02-06T00:09:25.814Z,3.00
2023-02-06T00:10:25.833Z,2.98
2023-02-06T00:11:25.892Z,3.00
2023-02-06T00:12:25.907Z,3.03
2023-02-06T00:13:25.956Z,2.95
2023-02-06T00:14:25.997Z,2.98
2023-02-06T00:15:26.031Z,3.00
2023-02-06T00:16:26.100Z,3.05
2023-02-06T00:17:26.121Z,2.97
2023-02-06T00:18:26.157Z,2.94
2023-02-06T00:19:26.234Z,2.98
2023-02-06T00:20:26.236Z,2.94
2023-02-06T00:21:26.296Z,2.97
2023-02-06T00:22:26.322Z,2.94
2023-02-06T00:23:26.365Z,2.94
2023-02-06T00:24:26.429Z,3.03
2023-02-06T00:25:26.436Z,2.94
2023-02-06T00:26:26.489Z,2.97
2023-02-06T00:27:26.514Z,2.98
2023-02-06T00:28:26.565Z,3.05
2023-02-06T00:29:26.630Z,2.97
2023-02-06T00:30:26.691Z,2.97
2023-02-06T00:31:26.733Z,2.97
2023-02-06T00:32:26.729Z,3.00
2023-02-06T00:33:26.767Z,2.98
2023-02-06T00:34:26.812Z,3.02
2023-02-06T00:35:26.905Z,3.06
2023-02-06T00:36:26.889Z,3.06
2023-02-06T00:37:26.930Z,3.03
2023-02-06T00:38:26.971Z,3.02
2023-02-06T00:39:27.005Z,3.05
2023-02-06T00:40:27.083Z,3.05
2023-02-06T00:41:27.083Z,3.06
2023-02-06T00:42:27.161Z,3.02
2023-02-06T00:43:27.172Z,3.05
2023-02-06T00:44:27.216Z,2.89
2023-02-06T00:45:27.249Z,2.97
2023-02-06T00:46:27.365Z,2.95
2023-02-06T00:47:27.366Z,2.91
2023-02-06T00:48:27.374Z,2.89
2023-02-06T00:49:27.410Z,2.95
2023-02-06T00:50:35.873Z,2.89
2023-02-06T00:51:27.509Z,2.94
2023-02-06T00:52:27.560Z,2.94
2023-02-06T00:53:27.578Z,2.94
2023-02-06T00:54:27.610Z,2.97
2023-02-06T00:55:27.661Z,2.91
2023-02-06T00:56:27.697Z,2.89
2023-02-06T00:57:27.763Z,3.02
2023-02-06T00:58:27.779Z,2.92
2023-02-06T00:59:27.810Z,3.00
2023-02-06T01:00:27.872Z,3.02
2023-02-06T01:01:27.964Z,2.98
2023-02-06T01:02:28.920Z,2.97
2023-02-06T01:03:27.969Z,2.92
2023-02-06T01:04:28.019Z,2.95
2023-02-06T01:05:28.059Z,2.95
2023-02-06T01:06:28.120Z,3.02
2023-02-06T01:07:28.138Z,2.95
2023-02-06T01:08:28.880Z,2.95
2023-02-06T01:09:28.216Z,2.88
2023-02-06T01:10:28.261Z,2.94
2023-02-06T01:11:28.321Z,2.89
2023-02-06T01:12:28.328Z,2.89
2023-02-06T01:13:28.382Z,2.95
2023-02-06T01:14:29.379Z,3.02
2023-02-06T01:15:28.453Z,2.92
2023-02-06T01:16:28.574Z,2.88
2023-02-06T01:17:28.541Z,2.94
2023-02-06T01:18:28.609Z,2.92
2023-02-06T01:19:28.619Z,3.00
2023-02-06T01:20:28.655Z,2.94
2023-02-06T01:21:28.702Z,3.05
2023-02-06T01:22:28.731Z,2.97
2023-02-06T01:23:28.797Z,3.05
2023-02-06T01:24:28.819Z,2.98
2023-02-06T01:25:28.875Z,3.00
2023-02-06T01:26:28.900Z,3.05
2023-02-06T01:27:28.935Z,2.98
2023-02-06T01:28:28.973Z,2.95
2023-02-06T01:29:29.025Z,2.95
2023-02-06T01:30:29.099Z,3.03
2023-02-06T01:31:29.242Z,3.02
2023-02-06T01:32:29.170Z,2.92
2023-02-06T01:33:29.210Z,2.94
2023-02-06T01:34:29.215Z,2.94
2023-02-06T01:35:29.256Z,2.89
2023-02-06T01:36:29.320Z,2.92
2023-02-06T01:37:29.346Z,2.94
2023-02-06T01:38:29.417Z,3.00
2023-02-06T01:39:29.426Z,2.89
2023-02-06T01:40:29.461Z,2.92
2023-02-06T01:41:29.511Z,2.94
2023-02-06T01:42:29.550Z,3.00
2023-02-06T01:43:29.612Z,3.00
2023-02-06T01:44:30.387Z,2.98
2023-02-06T01:45:29.680Z,2.95
2023-02-06T01:46:29.769Z,3.00
2023-02-06T01:47:29.754Z,2.97
2023-02-06T01:48:29.795Z,2.95
2023-02-06T01:49:29.858Z,2.95
2023-02-06T01:50:29.876Z,2.95
2023-02-06T01:51:29.906Z,2.84
2023-02-06T01:52:29.946Z,2.76
2023-02-06T01:53:30.018Z,2.88
2023-02-06T01:54:30.054Z,2.88
2023-02-06T01:55:30.077Z,2.91
2023-02-06T01:56:30.137Z,2.89
2023-02-06T01:57:30.154Z,2.92
2023-02-06T01:58:30.220Z,2.89
2023-02-06T01:59:30.240Z,2.89
2023-02-06T02:00:30.316Z,2.84
2023-02-06T02:01:30.340Z,2.91
2023-02-06T02:02:30.877Z,2.88
2023-02-06T02:03:30.390Z,2.89
2023-02-06T02:04:30.460Z,2.91
2023-02-06T02:05:30.482Z,2.82
2023-02-06T02:06:30.521Z,2.84
2023-02-06T02:07:30.555Z,2.77
2023-02-06T02:08:30.600Z,2.79
2023-02-06T02:09:30.664Z,2.82
2023-02-06T02:10:30.732Z,2.69
2023-02-06T02:11:30.728Z,2.70
2023-02-06T02:12:30.766Z,2.79
2023-02-06T02:13:30.828Z,2.71
2023-02-06T02:14:30.841Z,2.77
2023-02-06T02:15:30.882Z,2.76
2023-02-06T02:16:30.965Z,2.81
2023-02-06T02:17:30.968Z,2.74
2023-02-06T02:18:31.039Z,2.71
2023-02-06T02:19:31.046Z,2.76
2023-02-06T02:20:31.095Z,2.76
2023-02-06T02:21:31.132Z,2.79
2023-02-06T02:22:31.165Z,2.81
2023-02-06T02:23:31.227Z,2.79
2023-02-06T02:24:31.933Z,2.76
2023-02-06T02:25:31.286Z,2.74
2023-02-06T02:26:31.364Z,2.79
2023-02-06T02:27:31.367Z,2.79
2023-02-06T02:28:31.426Z,2.77
2023-02-06T02:29:31.454Z,2.79
2023-02-06T02:30:31.514Z,2.76
2023-02-06T02:31:31.576Z,2.87
2023-02-06T02:32:31.579Z,2.87
2023-02-06T02:33:31.640Z,2.79
2023-02-06T02:34:31.654Z,2.82
2023-02-06T02:35:31.713Z,2.77
2023-02-06T02:36:31.728Z,2.77
2023-02-06T02:37:31.771Z,2.70
2023-02-06T02:38:31.817Z,2.73
2023-02-06T02:39:31.855Z,2.73
2023-02-06T02:40:31.918Z,2.69
2023-02-06T02:41:31.931Z,2.63
2023-02-06T02:42:31.980Z,2.74
2023-02-06T02:43:32.011Z,2.71
2023-02-06T02:44:32.066Z,2.71
2023-02-06T02:45:32.147Z,2.71
2023-02-06T02:46:32.139Z,2.69
2023-02-06T02:47:32.171Z,2.76
2023-02-06T02:48:32.219Z,2.67
2023-02-06T02:49:32.257Z,2.69
2023-02-06T02:50:32.322Z,2.71
2023-02-06T02:51:32.336Z,2.74
2023-02-06T02:52:32.374Z,2.69
2023-02-06T02:53:32.408Z,2.70
2023-02-06T02:54:32.447Z,2.70
2023-02-06T02:55:32.522Z,2.71
2023-02-06T02:56:32.534Z,2.67
2023-02-06T02:57:32.572Z,2.56
2023-02-06T02:58:32.617Z,2.73
2023-02-06T02:59:32.648Z,2.69
2023-02-06T03:00:32.719Z,2.71
2023-02-06T03:01:32.725Z,2.82
2023-02-06T03:02:32.852Z,2.77
2023-02-06T03:03:32.835Z,2.81
2023-02-06T03:04:32.847Z,2.82
2023-02-06T03:05:32.906Z,2.79
2023-02-06T03:06:32.934Z,2.82
2023-02-06T03:07:32.966Z,2.87
2023-02-06T03:08:33.027Z,2.79
2023-02-06T03:09:33.049Z,2.79
2023-02-06T03:10:40.619Z,2.79
2023-02-06T03:11:41.963Z,2.74
2023-02-06T03:12:33.175Z,2.82
2023-02-06T03:13:33.204Z,2.85
2023-02-06T03:14:33.253Z,2.91
2023-02-06T03:15:33.545Z,2.76
2023-02-06T03:16:33.367Z,2.85
2023-02-06T03:17:33.365Z,2.76
2023-02-06T03:18:33.404Z,2.89
2023-02-06T03:19:33.446Z,2.87
2023-02-06T03:20:33.516Z,2.82
2023-02-06T03:21:33.523Z,2.88
2023-02-06T03:22:33.565Z,2.89
2023-02-06T03:23:33.601Z,2.89
2023-02-06T03:24:33.650Z,2.91
2023-02-06T03:25:33.919Z,2.91
2023-02-06T03:26:33.753Z,2.89
2023-02-06T03:27:33.792Z,2.92
2023-02-06T03:28:33.800Z,2.89
2023-02-06T03:29:33.855Z,2.87
2023-02-06T03:30:33.911Z,2.87
2023-02-06T03:31:33.958Z,2.79
2023-02-06T03:32:33.993Z,2.85
2023-02-06T03:33:34.002Z,2.94
2023-02-06T03:34:34.052Z,2.88
2023-02-06T03:35:34.415Z,2.87
2023-02-06T03:36:34.128Z,2.95
2023-02-06T03:37:34.192Z,2.94
2023-02-06T03:38:34.209Z,2.94
2023-02-06T03:39:34.253Z,2.89
2023-02-06T03:40:34.283Z,2.89
2023-02-06T03:41:34.322Z,2.94
2023-02-06T03:42:34.392Z,2.92
2023-02-06T03:43:34.405Z,2.92
2023-02-06T03:44:34.443Z,2.92
2023-02-06T03:45:34.740Z,2.92
2023-02-06T03:46:34.521Z,2.97
2023-02-06T03:47:34.596Z,2.94
2023-02-06T03:48:34.605Z,2.94
2023-02-06T03:49:34.648Z,2.89
2023-02-06T03:50:34.689Z,2.94
2023-02-06T03:51:34.719Z,2.94
2023-02-06T03:52:34.787Z,2.89
2023-02-06T03:53:34.805Z,2.92
2023-02-06T03:54:34.845Z,2.97
2023-02-06T03:55:35.172Z,2.92
2023-02-06T03:56:34.947Z,3.00
2023-02-06T03:57:34.961Z,3.05
2023-02-06T03:58:35.001Z,2.95
2023-02-06T03:59:35.052Z,3.00
2023-02-06T04:00:35.110Z,2.88
2023-02-06T04:01:35.211Z,2.92
2023-02-06T04:02:35.206Z,2.95
2023-02-06T04:03:35.206Z,2.95
2023-02-06T04:04:35.258Z,2.95
2023-02-06T04:05:35.572Z,2.88
2023-02-06T04:06:35.360Z,2.97
2023-02-06T04:07:35.392Z,2.97
2023-02-06T04:08:35.430Z,2.89
2023-02-06T04:09:35.478Z,2.89
2023-02-06T04:10:35.489Z,3.00
2023-02-06T04:11:35.549Z,2.89
2023-02-06T04:12:35.574Z,2.92
2023-02-06T04:13:35.605Z,2.92
2023-02-06T04:14:36.478Z,2.94
2023-02-06T04:15:35.873Z,2.95
2023-02-06T04:16:35.842Z,2.94
2023-02-06T04:17:53.586Z,2.88
2023-02-06T04:18:35.840Z,2.98
2023-02-06T04:19:35.860Z,2.94
2023-02-06T04:20:35.909Z,2.97
2023-02-06T04:21:35.927Z,2.95
2023-02-06T04:22:35.976Z,2.92
2023-02-06T04:23:36.015Z,3.06
2023-02-06T04:24:36.079Z,2.94
2023-02-06T04:25:36.345Z,2.98
2023-02-06T04:26:36.981Z,3.02
2023-02-06T04:27:36.168Z,3.00
2023-02-06T04:28:36.214Z,3.02
2023-02-06T04:29:36.284Z,3.02
2023-02-06T04:30:36.332Z,3.09
2023-02-06T04:31:36.391Z,3.07
2023-02-06T04:32:36.366Z,3.02
2023-02-06T04:33:36.416Z,3.00
2023-02-06T04:34:36.481Z,2.98
2023-02-06T04:35:36.696Z,3.06
2023-02-06T04:36:36.528Z,2.94
2023-02-06T04:37:36.624Z,2.97
2023-02-06T04:38:36.608Z,3.00
2023-02-06T04:39:36.687Z,2.98
2023-02-06T04:40:36.711Z,2.92
2023-02-06T04:41:36.741Z,2.91
2023-02-06T04:42:36.777Z,2.95
2023-02-06T04:43:36.813Z,2.92
2023-02-06T04:44:36.854Z,2.92
2023-02-06T04:45:37.142Z,2.91
2023-02-06T04:46:36.939Z,2.92
2023-02-06T04:47:36.972Z,2.91
2023-02-06T04:48:37.037Z,2.92
2023-02-06T04:49:37.062Z,2.97
2023-02-06T04:50:37.099Z,2.94
2023-02-06T04:51:37.155Z,2.97
2023-02-06T04:52:37.195Z,2.89
2023-02-06T04:53:37.243Z,2.92
2023-02-06T04:54:37.267Z,3.00
2023-02-06T04:55:37.556Z,2.92
2023-02-06T04:56:37.345Z,2.89
2023-02-06T04:57:37.383Z,2.95
2023-02-06T04:58:37.438Z,2.95
2023-02-06T04:59:37.491Z,2.92
2023-02-06T05:00:38.822Z,2.91
2023-02-06T05:01:37.594Z,2.88
2023-02-06T05:02:37.656Z,2.91
2023-02-06T05:03:37.616Z,2.92
2023-02-06T05:04:37.684Z,2.97
2023-02-06T05:05:37.693Z,2.95
2023-02-06T05:06:37.743Z,2.98
2023-02-06T05:07:37.775Z,2.95
2023-02-06T05:08:37.816Z,3.00
2023-02-06T05:09:37.898Z,2.97
2023-02-06T05:10:37.928Z,2.97
2023-02-06T05:11:37.938Z,2.94
2023-02-06T05:12:37.988Z,3.00
2023-02-06T05:13:38.031Z,3.03
2023-02-06T05:14:38.065Z,3.00
2023-02-06T05:15:38.356Z,3.03
2023-02-06T05:16:38.146Z,3.09
2023-02-06T05:17:38.213Z,2.97
2023-02-06T05:18:38.223Z,3.05
2023-02-06T05:19:38.266Z,3.07
2023-02-06T05:20:38.308Z,3.00
2023-02-06T05:21:38.345Z,3.00
2023-02-06T05:22:38.417Z,3.02
2023-02-06T05:23:38.431Z,3.02
2023-02-06T05:24:38.467Z,2.98
2023-02-06T05:25:39.197Z,3.12
2023-02-06T05:26:38.554Z,3.10
2023-02-06T05:27:38.604Z,3.13
2023-02-06T05:28:38.630Z,3.10
2023-02-06T05:29:38.667Z,3.15
2023-02-06T05:30:38.723Z,3.15
2023-02-06T05:31:38.923Z,3.10
2023-02-06T05:32:46.360Z,3.13
2023-02-06T05:33:38.820Z,3.09
2023-02-06T05:34:38.870Z,3.10
2023-02-06T05:35:38.914Z,3.00
2023-02-06T05:36:38.951Z,3.10
2023-02-06T05:37:38.998Z,3.10
2023-02-06T05:38:39.044Z,3.09
2023-02-06T05:39:39.072Z,3.02
2023-02-06T05:40:39.107Z,3.13
2023-02-06T05:41:39.148Z,3.13
2023-02-06T05:42:39.186Z,3.02
2023-02-06T05:43:39.249Z,3.03
2023-02-06T05:44:39.275Z,3.06
2023-02-06T05:45:39.600Z,3.15
2023-02-06T05:46:39.431Z,3.10
2023-02-06T05:47:39.407Z,3.05
2023-02-06T05:48:39.460Z,3.06
2023-02-06T05:49:39.483Z,3.05
2023-02-06T05:50:39.541Z,3.10
2023-02-06T05:51:39.559Z,3.06
2023-02-06T05:52:39.598Z,3.03
2023-02-06T05:53:39.642Z,2.98
2023-02-06T05:54:39.680Z,2.97
2023-02-06T05:55:39.752Z,2.97
2023-02-06T05:56:39.763Z,3.03
2023-02-06T05:57:39.794Z,3.02
2023-02-06T05:58:39.847Z,3.00
2023-02-06T05:59:39.880Z,3.03
2023-02-06T06:00:39.939Z,3.03
2023-02-06T06:01:39.957Z,3.02
2023-02-06T06:02:40.009Z,2.98
2023-02-06T06:03:40.117Z,3.00
2023-02-06T06:04:40.129Z,3.02
2023-02-06T06:05:40.128Z,3.00
2023-02-06T06:06:40.189Z,3.03
2023-02-06T06:07:40.212Z,3.03
2023-02-06T06:08:40.275Z,2.98
2023-02-06T06:09:40.284Z,3.03
2023-02-06T06:10:40.331Z,3.09
2023-02-06T06:11:40.376Z,3.09
2023-02-06T06:12:40.413Z,3.13
2023-02-06T06:13:40.466Z,3.13
2023-02-06T06:14:40.492Z,3.00
2023-02-06T06:15:40.530Z,3.02
2023-02-06T06:16:40.598Z,3.00
2023-02-06T06:17:40.638Z,3.05
2023-02-06T06:18:40.650Z,3.05
2023-02-06T06:19:40.698Z,3.00
2023-02-06T06:20:40.750Z,3.10
2023-02-06T06:21:40.769Z,3.13
2023-02-06T06:22:40.812Z,3.15
2023-02-06T06:23:40.857Z,3.15
2023-02-06T06:24:40.917Z,3.12
2023-02-06T06:25:40.943Z,3.12
2023-02-06T06:26:40.970Z,3.16
2023-02-06T06:27:41.527Z,3.03
2023-02-06T06:28:41.064Z,3.00
2023-02-06T06:29:41.120Z,3.02
2023-02-06T06:30:41.186Z,3.03
2023-02-06T06:31:41.267Z,3.12
2023-02-06T06:32:41.232Z,2.95
2023-02-06T06:33:41.263Z,2.95
2023-02-06T06:34:41.289Z,3.06
2023-02-06T06:35:41.337Z,3.03
2023-02-06T06:36:41.395Z,3.02
2023-02-06T06:37:41.416Z,3.02
2023-02-06T06:38:41.455Z,3.02
2023-02-06T06:39:41.501Z,3.03
2023-02-06T06:40:41.567Z,2.95
2023-02-06T06:41:41.568Z,3.00
2023-02-06T06:42:41.617Z,3.00
2023-02-06T06:43:41.655Z,2.92
2023-02-06T06:44:41.698Z,2.94
2023-02-06T06:45:41.798Z,2.92
2023-02-06T06:46:41.785Z,2.89
2023-02-06T06:47:41.812Z,2.92
2023-02-06T06:48:41.848Z,2.97
2023-02-06T06:49:41.898Z,2.94
2023-02-06T06:50:41.965Z,3.02
2023-02-06T06:51:41.979Z,2.92
2023-02-06T06:52:42.020Z,2.97
2023-02-06T06:53:42.051Z,2.98
2023-02-06T06:54:42.115Z,2.97
2023-02-06T06:55:42.129Z,2.94
2023-02-06T06:56:42.173Z,2.85
2023-02-06T06:57:42.212Z,2.77
2023-02-06T06:58:42.256Z,2.88
2023-02-06T06:59:42.322Z,2.89
2023-02-06T07:00:42.369Z,2.85
2023-02-06T07:01:42.405Z,2.76
2023-02-06T07:02:42.448Z,2.84
2023-02-06T07:03:42.465Z,2.84
2023-02-06T07:04:42.502Z,2.82
2023-02-06T07:05:42.567Z,2.79
2023-02-06T07:06:42.574Z,2.79
2023-02-06T07:07:42.657Z,2.79
2023-02-06T07:08:42.662Z,2.76
2023-02-06T07:09:42.731Z,2.85
2023-02-06T07:10:42.741Z,2.85
2023-02-06T07:11:42.999Z,2.76
2023-02-06T07:12:42.821Z,2.91
2023-02-06T07:13:43.546Z,2.81
2023-02-06T07:14:42.922Z,2.92
2023-02-06T07:15:42.935Z,2.95
2023-02-06T07:16:43.003Z,2.89
2023-02-06T07:17:43.019Z,2.88
2023-02-06T07:18:43.118Z,2.92
2023-02-06T07:19:43.130Z,2.92
2023-02-06T07:20:43.151Z,2.74
2023-02-06T07:21:43.177Z,2.81
2023-02-06T07:22:43.217Z,2.84
2023-02-06T07:23:43.277Z,2.77
2023-02-06T07:24:43.326Z,2.70
2023-02-06T07:25:44.024Z,2.87
2023-02-06T07:26:43.399Z,2.92
2023-02-06T07:27:43.528Z,2.76
2023-02-06T07:28:43.466Z,2.81
2023-02-06T07:29:43.533Z,2.84
2023-02-06T07:30:43.560Z,2.87
2023-02-06T07:31:43.634Z,2.88
2023-02-06T07:32:43.626Z,2.88
2023-02-06T07:33:43.667Z,2.91
2023-02-06T07:34:43.730Z,2.76
2023-02-06T07:35:43.751Z,2.73
2023-02-06T07:36:43.779Z,2.79
2023-02-06T07:37:43.833Z,2.91
2023-02-06T07:38:43.872Z,2.87
2023-02-06T07:39:43.921Z,2.95
2023-02-06T07:40:45.364Z,2.91
2023-02-06T07:41:43.988Z,2.82
2023-02-06T07:42:44.031Z,2.95
2023-02-06T07:43:44.075Z,2.91
2023-02-06T07:44:44.101Z,2.87
2023-02-06T07:45:44.198Z,2.89
2023-02-06T07:46:44.231Z,2.76
2023-02-06T07:47:44.233Z,2.84
2023-02-06T07:48:44.274Z,2.92
2023-02-06T07:49:44.303Z,2.76
2023-02-06T07:50:44.348Z,2.85
2023-02-06T07:51:44.413Z,2.94
2023-02-06T07:52:44.435Z,2.89
2023-02-06T07:53:44.495Z,2.87
2023-02-06T07:54:52.563Z,2.89
2023-02-06T07:55:44.548Z,2.88
2023-02-06T07:56:44.616Z,2.89
2023-02-06T07:57:44.636Z,3.00
2023-02-06T07:58:44.704Z,2.89
2023-02-06T07:59:44.716Z,3.00
2023-02-06T08:00:46.017Z,2.98
2023-02-06T08:01:44.793Z,3.00
2023-02-06T08:02:44.842Z,2.94
2023-02-06T08:03:44.890Z,2.95
2023-02-06T08:04:44.954Z,3.02
2023-02-06T08:05:44.950Z,3.03
2023-02-06T08:06:45.002Z,2.98
2023-02-06T08:07:45.059Z,3.03
2023-02-06T08:08:45.076Z,3.05
2023-02-06T08:09:45.120Z,3.09
2023-02-06T08:10:45.150Z,3.03
2023-02-06T08:11:45.200Z,3.00
2023-02-06T08:12:45.253Z,3.13
2023-02-06T08:13:45.268Z,3.20
2023-02-06T08:14:45.327Z,3.12
2023-02-06T08:15:45.369Z,3.15
2023-02-06T08:16:45.443Z,3.12
2023-02-06T08:17:45.432Z,3.15
2023-02-06T08:18:45.480Z,3.09
2023-02-06T08:19:45.525Z,3.10
2023-02-06T08:20:45.565Z,3.15
2023-02-06T08:21:45.632Z,3.18
2023-02-06T08:22:45.634Z,3.15
2023-02-06T08:23:45.686Z,3.21
2023-02-06T08:24:45.745Z,3.28
2023-02-06T08:25:45.765Z,3.18
2023-02-06T08:26:45.807Z,3.25
2023-02-06T08:27:45.898Z,3.30
2023-02-06T08:28:45.927Z,3.27
2023-02-06T08:29:45.947Z,3.25
2023-02-06T08:30:46.104Z,3.13
2023-02-06T08:31:46.050Z,3.23
2023-02-06T08:32:46.042Z,3.18
2023-02-06T08:33:46.087Z,3.20
2023-02-06T08:34:46.153Z,3.23
2023-02-06T08:35:46.165Z,3.28
2023-02-06T08:36:46.208Z,3.30
2023-02-06T08:37:46.248Z,3.34
2023-02-06T08:38:46.287Z,3.31
2023-02-06T08:39:46.359Z,3.39
2023-02-06T08:40:46.416Z,3.23
2023-02-06T08:41:46.420Z,3.28
2023-02-06T08:42:46.462Z,3.20
2023-02-06T08:43:46.502Z,3.20
2023-02-06T08:44:46.536Z,3.18
2023-02-06T08:45:46.674Z,3.18
2023-02-06T08:46:46.638Z,3.12
2023-02-06T08:47:46.663Z,3.20
2023-02-06T08:48:46.713Z,3.13
2023-02-06T08:49:46.748Z,3.03
2023-02-06T08:50:47.851Z,3.00
2023-02-06T08:51:46.839Z,3.03
2023-02-06T08:52:46.862Z,3.03
2023-02-06T08:53:47.347Z,3.07
2023-02-06T08:54:46.965Z,3.05
2023-02-06T08:55:47.009Z,3.03
2023-02-06T08:56:47.038Z,3.03
2023-02-06T08:57:47.085Z,3.00
2023-02-06T08:58:47.122Z,3.02
2023-02-06T08:59:47.157Z,3.15
2023-02-06T09:00:47.234Z,3.13
2023-02-06T09:01:47.297Z,3.09
2023-02-06T09:02:47.355Z,3.10
2023-02-06T09:03:47.327Z,3.10
2023-02-06T09:04:47.365Z,3.10
2023-02-06T09:05:47.406Z,3.10
2023-02-06T09:06:47.450Z,3.05
2023-02-06T09:07:47.497Z,3.12
2023-02-06T09:08:47.524Z,3.15
2023-02-06T09:09:47.557Z,3.10
2023-02-06T09:10:47.596Z,3.13
2023-02-06T09:11:47.646Z,3.18
2023-02-06T09:12:47.710Z,3.09
2023-02-06T09:13:49.205Z,3.13
2023-02-06T09:14:47.764Z,3.20
2023-02-06T09:15:47.891Z,3.20
2023-02-06T09:16:47.872Z,3.28
2023-02-06T09:17:47.891Z,3.36
2023-02-06T09:18:47.925Z,3.39
2023-02-06T09:19:47.972Z,3.30
2023-02-06T09:20:48.012Z,3.30
2023-02-06T09:21:48.078Z,3.30
2023-02-06T09:22:48.095Z,3.30
2023-02-06T09:23:48.147Z,3.18
2023-02-06T09:24:48.175Z,3.12
2023-02-06T09:25:48.201Z,3.15
2023-02-06T09:26:59.382Z,3.21
2023-02-06T09:27:48.311Z,3.21
2023-02-06T09:28:48.328Z,3.28
2023-02-06T09:29:48.391Z,3.27
2023-02-06T09:30:48.488Z,3.42
2023-02-06T09:31:48.493Z,3.47
2023-02-06T09:32:48.493Z,3.68
2023-02-06T09:33:48.614Z,3.70
2023-02-06T09:34:49.246Z,3.40
2023-02-06T09:35:48.627Z,3.49
2023-02-06T09:36:48.667Z,3.67
2023-02-06T09:37:48.707Z,3.85
2023-02-06T09:38:48.746Z,4.12
2023-02-06T09:39:48.810Z,4.28
2023-02-06T09:40:48.840Z,4.32
2023-02-06T09:41:48.892Z,4.40
2023-02-06T09:42:48.912Z,4.50
2023-02-06T09:43:48.952Z,4.37
2023-02-06T09:44:49.042Z,4.52
2023-02-06T09:45:49.047Z,4.34
2023-02-06T09:46:49.078Z,4.22
2023-02-06T09:47:49.139Z,4.50
2023-02-06T09:48:49.163Z,4.44
2023-02-06T09:49:49.242Z,4.36
2023-02-06T09:50:49.256Z,4.22
2023-02-06T09:51:49.293Z,4.28
2023-02-06T09:52:49.335Z,4.10
2023-02-06T09:53:49.378Z,4.04
2023-02-06T09:54:49.448Z,3.80
2023-02-06T09:55:49.471Z,3.78
2023-02-06T09:56:49.515Z,3.89
2023-02-06T09:57:49.554Z,4.04
2023-02-06T09:58:49.596Z,4.22
2023-02-06T09:59:49.674Z,4.21
2023-02-06T10:00:49.688Z,4.19
2023-02-06T10:01:49.788Z,4.32
2023-02-06T10:02:49.772Z,4.50
2023-02-06T10:03:49.821Z,4.62
2023-02-06T10:04:49.901Z,4.64
2023-02-06T10:05:49.920Z,4.75
2023-02-06T10:06:49.957Z,4.89
2023-02-06T10:07:50.023Z,5.09
2023-02-06T10:08:50.033Z,4.92
2023-02-06T10:09:50.083Z,5.01
2023-02-06T10:10:50.134Z,4.98
2023-02-06T10:11:50.163Z,5.19
2023-02-06T10:12:50.255Z,5.17
2023-02-06T10:13:50.258Z,5.12
2023-02-06T10:14:58.118Z,5.23
2023-02-06T10:15:50.403Z,5.41
2023-02-06T10:16:50.388Z,5.38
2023-02-06T10:17:50.414Z,5.30
2023-02-06T10:18:50.477Z,5.25
2023-02-06T10:19:50.506Z,5.20
2023-02-06T10:20:50.592Z,4.79
2023-02-06T10:21:50.600Z,4.62
2023-02-06T10:22:50.653Z,4.25
2023-02-06T10:23:50.703Z,4.06
2023-02-06T10:24:50.767Z,4.43
2023-02-06T10:25:50.784Z,4.43
2023-02-06T10:26:50.848Z,4.36
2023-02-06T10:27:50.891Z,4.77
2023-02-06T10:28:50.942Z,4.95
2023-02-06T10:29:50.948Z,4.88
2023-02-06T10:30:51.021Z,4.91
2023-02-06T10:31:51.064Z,4.64
2023-02-06T10:32:51.106Z,4.40
2023-02-06T10:33:51.155Z,4.25
2023-02-06T10:34:51.172Z,4.21
2023-02-06T10:35:52.122Z,4.01
2023-02-06T10:36:51.267Z,4.15
2023-02-06T10:37:51.348Z,4.52
2023-02-06T10:38:51.360Z,4.94
2023-02-06T10:39:51.405Z,5.31
2023-02-06T10:40:51.480Z,5.70
2023-02-06T10:41:51.484Z,6.13
2023-02-06T10:42:51.533Z,6.32
2023-02-06T10:43:51.591Z,6.47
2023-02-06T10:44:51.803Z,6.76
2023-02-06T10:45:52.631Z,6.35
2023-02-06T10:46:51.791Z,6.06
2023-02-06T10:47:51.776Z,6.14
2023-02-06T10:48:53.550Z,6.62
2023-02-06T10:49:51.856Z,6.84
2023-02-06T10:50:51.892Z,6.84
2023-02-06T10:51:51.932Z,6.91
2023-02-06T10:52:52.004Z,6.90
2023-02-06T10:53:52.070Z,6.76
2023-02-06T10:54:52.089Z,6.54
2023-02-06T10:55:52.316Z,6.66
2023-02-06T10:56:52.241Z,6.56
2023-02-06T10:57:52.224Z,7.04
2023-02-06T10:58:52.284Z,7.31
2023-02-06T10:59:53.883Z,7.31
2023-02-06T11:00:52.386Z,7.31
2023-02-06T11:01:52.418Z,7.56
2023-02-06T11:03:06.324Z,7.50
2023-02-06T11:03:52.567Z,7.19
2023-02-06T11:04:52.572Z,7.55
2023-02-06T11:05:52.619Z,7.93
2023-02-06T11:06:52.677Z,8.30
2023-02-06T11:07:53.638Z,8.45
2023-02-06T11:08:52.782Z,8.72
2023-02-06T11:09:52.813Z,8.93
2023-02-06T11:10:52.857Z,9.09
2023-02-06T11:11:52.896Z,9.02
2023-02-06T11:12:52.977Z,9.04
2023-02-06T11:13:52.988Z,8.54
2023-02-06T11:14:53.046Z,8.86
2023-02-06T11:15:53.089Z,8.93
2023-02-06T11:16:53.155Z,9.01
2023-02-06T11:17:53.213Z,9.16
2023-02-06T11:18:53.252Z,8.63
2023-02-06T11:19:53.330Z,8.54
2023-02-06T11:20:55.715Z,8.20
2023-02-06T11:21:53.397Z,7.87
2023-02-06T11:22:53.908Z,7.87
2023-02-06T11:23:53.504Z,8.14
2023-02-06T11:24:53.588Z,8.32
2023-02-06T11:25:53.620Z,8.84
2023-02-06T11:26:53.662Z,9.28
2023-02-06T11:27:53.754Z,9.31
2023-02-06T11:28:53.757Z,8.97
2023-02-06T11:29:53.846Z,8.88
2023-02-06T11:30:53.891Z,8.99
2023-02-06T11:31:54.033Z,9.34
2023-02-06T11:33:04.086Z,9.76
2023-02-06T11:33:54.652Z,9.23
2023-02-06T11:34:54.067Z,9.18
2023-02-06T11:35:54.119Z,9.20
2023-02-06T11:36:54.201Z,9.60
2023-02-06T11:37:54.224Z,9.12
2023-02-06T11:38:54.285Z,9.35
2023-02-06T11:39:54.340Z,9.79
2023-02-06T11:40:54.379Z,9.96
2023-02-06T11:41:54.466Z,9.32
2023-02-06T11:42:54.497Z,8.97
2023-02-06T11:43:54.540Z,8.91
2023-02-06T11:44:54.589Z,8.54
2023-02-06T11:45:54.697Z,8.14
2023-02-06T11:46:54.697Z,7.82
2023-02-06T11:47:54.754Z,7.96
2023-02-06T11:48:54.812Z,8.08
2023-02-06T11:49:54.916Z,7.96
2023-02-06T11:50:54.936Z,7.77
2023-02-06T11:51:54.978Z,7.56
2023-02-06T11:52:55.015Z,7.47
2023-02-06T11:53:55.069Z,7.66
2023-02-06T11:54:55.146Z,7.37
2023-02-06T11:55:55.183Z,7.20
2023-02-06T11:56:55.222Z,7.07
2023-02-06T11:57:55.308Z,6.79
2023-02-06T11:58:55.330Z,6.80
2023-02-06T11:59:55.383Z,6.40
2023-02-06T12:00:55.432Z,6.09
2023-02-06T12:01:55.564Z,6.10
2023-02-06T12:02:55.560Z,6.04
2023-02-06T12:03:55.587Z,6.16
2023-02-06T12:04:55.627Z,6.14
2023-02-06T12:05:59.023Z,6.33
2023-02-06T12:06:55.754Z,6.46
2023-02-06T12:07:55.776Z,6.62
2023-02-06T12:08:55.924Z,6.51
2023-02-06T12:09:55.877Z,6.22
2023-02-06T12:10:55.944Z,6.14
2023-02-06T12:11:55.981Z,6.09
2023-02-06T12:12:56.019Z,6.19
2023-02-06T12:13:56.065Z,5.89
2023-02-06T12:14:56.110Z,5.88
2023-02-06T12:15:56.194Z,5.74
2023-02-06T12:16:56.278Z,5.70
2023-02-06T12:17:56.257Z,5.50
2023-02-06T12:18:56.302Z,5.45
2023-02-06T12:19:56.352Z,5.50
2023-02-06T12:20:56.421Z,5.56
2023-02-06T12:21:56.520Z,5.49
2023-02-06T12:22:56.478Z,5.56
2023-02-06T12:23:56.530Z,5.53
2023-02-06T12:24:56.581Z,5.59
2023-02-06T12:25:56.654Z,5.63
2023-02-06T12:26:56.662Z,5.53
2023-02-06T12:27:56.751Z,5.38
2023-02-06T12:28:56.778Z,5.28
2023-02-06T12:29:56.808Z,5.56
2023-02-06T12:30:56.890Z,5.49
2023-02-06T12:31:57.028Z,5.71
2023-02-06T12:32:56.951Z,5.68
2023-02-06T12:33:56.992Z,5.45
2023-02-06T12:34:57.022Z,5.52
2023-02-06T12:35:57.058Z,5.52
2023-02-06T12:36:57.113Z,5.60
2023-02-06T12:37:57.179Z,5.66
2023-02-06T12:38:57.200Z,5.70
2023-02-06T12:39:57.268Z,5.78
2023-02-06T12:40:57.294Z,5.71
2023-02-06T12:41:57.324Z,5.56
2023-02-06T12:42:57.370Z,5.37
2023-02-06T12:43:57.439Z,5.41
2023-02-06T12:44:57.487Z,5.53
2023-02-06T12:45:57.564Z,5.71
2023-02-06T12:46:57.545Z,5.68
2023-02-06T12:47:57.593Z,5.53
2023-02-06T12:48:57.647Z,5.46
2023-02-06T12:49:57.711Z,5.30
2023-02-06T12:50:57.722Z,5.40
2023-02-06T12:51:57.773Z,5.38
2023-02-06T12:52:57.812Z,5.46
2023-02-06T12:53:57.871Z,5.55
2023-02-06T12:54:57.923Z,5.52
2023-02-06T12:56:00.525Z,5.45
2023-02-06T12:56:57.991Z,5.37
2023-02-06T12:57:58.042Z,5.35
2023-02-06T12:58:58.083Z,5.50
2023-02-06T12:59:58.677Z,5.70
2023-02-06T13:00:58.202Z,5.83
2023-02-06T13:01:58.267Z,5.92
2023-02-06T13:02:58.300Z,6.03
2023-02-06T13:03:58.300Z,6.00
2023-02-06T13:04:58.336Z,5.91
2023-02-06T13:05:58.425Z,5.83
2023-02-06T13:06:58.436Z,5.82
2023-02-06T13:07:58.479Z,5.68
2023-02-06T13:08:58.539Z,5.52
2023-02-06T13:09:58.562Z,5.45
2023-02-06T13:10:58.634Z,5.37
2023-02-06T13:11:58.689Z,5.16
2023-02-06T13:12:58.709Z,5.16
2023-02-06T13:13:58.771Z,5.12
2023-02-06T13:14:58.791Z,5.05
2023-02-06T13:15:58.970Z,5.14
2023-02-06T13:16:58.872Z,5.20
2023-02-06T13:17:58.947Z,5.25
2023-02-06T13:18:58.960Z,5.20